Time;durP1;ratioP1;P1;durP2;ratioP2;P2;SDS_P1;SDS_P2;PMS_P1;PMS_P2;Temp;Humidity;BMP_temperature;BMP_pressure;BME280_temperature;BME280_humidity;BME280_pressure;Samples;Min_cycle;Max_cycle;Signal;HPM_P1;HPM_P2
2022/12/11 00:00:24;;;;;;;5.73;2.27;;;;;;;;;;5063457;27;88642;-55
2022/12/11 00:02:55;;;;;;;3.00;2.47;;;;;;;;;;5062391;27;87133;-55
2022/12/11 00:05:24;;;;;;;4.00;2.20;;;;;;;;;;5062974;27;86973;-55
2022/12/11 00:07:52;;;;;;;2.43;2.17;;;;;;;;;;5062339;27;89894;-55
2022/12/11 00:10:20;;;;;;;3.40;2.60;;;;;;;;;;5062231;27;88160;-55
2022/12/11 00:12:48;;;;;;;2.77;2.43;;;;;;;;;;5063050;27;87740;-55
2022/12/11 00:15:17;;;;;;;3.33;2.23;;;;;;;;;;5062776;27;87061;-55
2022/12/11 00:17:45;;;;;;;2.60;2.13;;;;;;;;;;5062916;27;89049;-55
2022/12/11 00:20:15;;;;;;;4.13;2.50;;;;;;;;;;5063121;27;88685;-55
2022/12/11 00:22:43;;;;;;;5.23;2.73;;;;;;;;;;5062804;27;87063;-55
2022/12/11 00:25:11;;;;;;;2.03;1.60;;;;;;;;;;5063288;27;86317;-55
2022/12/11 00:27:40;;;;;;;2.90;2.00;;;;;;;;;;5062870;27;88042;-55
2022/12/11 00:30:09;;;;;;;2.33;1.83;;;;;;;;;;5062690;27;87591;-55
2022/12/11 00:32:37;;;;;;;3.17;2.17;;;;;;;;;;5062375;27;87878;-55
2022/12/11 00:35:06;;;;;;;2.93;2.10;;;;;;;;;;5062989;27;87062;-54
2022/12/11 00:37:36;;;;;;;3.13;2.43;;;;;;;;;;5062074;27;89150;-55
2022/12/11 00:40:04;;;;;;;4.73;2.43;;;;;;;;;;5062677;27;87796;-55
2022/12/11 00:42:32;;;;;;;3.90;2.03;;;;;;;;;;5062877;27;87035;-55
2022/12/11 00:45:01;;;;;;;3.73;2.00;;;;;;;;;;5062223;27;86972;-55
2022/12/11 00:47:29;;;;;;;3.07;1.90;;;;;;;;;;5062457;27;89145;-55
2022/12/11 00:49:58;;;;;;;2.70;1.60;;;;;;;;;;5062162;27;87881;-55
2022/12/11 00:52:26;;;;;;;2.87;1.90;;;;;;;;;;5062316;27;87486;-55
2022/12/11 00:54:56;;;;;;;2.93;2.00;;;;;;;;;;5062569;27;86980;-55
2022/12/11 00:57:24;;;;;;;4.87;2.10;;;;;;;;;;5061759;27;89684;-55
2022/12/11 00:59:52;;;;;;;3.07;2.40;;;;;;;;;;5062078;27;89599;-55
2022/12/11 01:02:20;;;;;;;4.27;2.43;;;;;;;;;;5062209;27;86923;-55
2022/12/11 01:04:49;;;;;;;3.30;2.20;;;;;;;;;;5049837;27;87387;-55
2022/12/11 01:07:17;;;;;;;3.00;1.43;;;;;;;;;;5044832;27;89012;-55
2022/12/11 01:12:33;;;;;;;2.30;1.53;;;;;;;;;;5062661;27;87105;-55
2022/12/11 01:15:01;;;;;;;2.23;1.80;;;;;;;;;;5060000;27;86463;-55
2022/12/11 01:17:29;;;;;;;3.10;2.37;;;;;;;;;;5082763;27;87961;-55
2022/12/11 01:19:58;;;;;;;1.83;1.73;;;;;;;;;;5067028;27;88917;-55
2022/12/11 01:22:26;;;;;;;2.47;1.90;;;;;;;;;;5074189;27;88061;-55
2022/12/11 01:24:54;;;;;;;1.60;1.50;;;;;;;;;;5048981;27;87051;-55
2022/12/11 01:27:23;;;;;;;2.53;1.73;;;;;;;;;;5050450;27;88201;-55
2022/12/11 01:29:52;;;;;;;1.90;1.80;;;;;;;;;;5040268;28;88867;-55
2022/12/11 01:32:21;;;;;;;4.00;2.30;;;;;;;;;;5040096;27;87126;-55
2022/12/11 01:34:49;;;;;;;2.27;1.80;;;;;;;;;;5039834;28;87339;-55
2022/12/11 01:37:17;;;;;;;2.47;1.10;;;;;;;;;;5042778;27;89223;-56
2022/12/11 01:39:46;;;;;;;2.27;1.27;;;;;;;;;;5060614;27;89174;-55
2022/12/11 01:42:15;;;;;;;1.57;1.17;;;;;;;;;;5062143;27;87225;-55
2022/12/11 01:45:02;;;;;;;3.17;2.10;;;;;;;;;;5062178;27;87040;-55
2022/12/11 01:47:32;;;;;;;2.27;1.77;;;;;;;;;;5061571;27;88938;-55
2022/12/11 01:50:00;;;;;;;2.27;1.27;;;;;;;;;;5062263;27;89415;-55
2022/12/11 01:52:28;;;;;;;1.70;1.40;;;;;;;;;;5061964;27;87810;-55
2022/12/11 01:54:57;;;;;;;2.73;1.67;;;;;;;;;;5058829;27;86993;-55
2022/12/11 01:57:25;;;;;;;1.10;1.00;;;;;;;;;;5061922;27;89124;-55
2022/12/11 01:59:53;;;;;;;1.90;1.50;;;;;;;;;;5062266;27;87928;-55
2022/12/11 02:02:22;;;;;;;1.20;1.10;;;;;;;;;;5062184;27;87047;-55
2022/12/11 02:04:52;;;;;;;1.77;1.13;;;;;;;;;;5059189;27;86385;-55
2022/12/11 02:07:20;;;;;;;1.67;1.20;;;;;;;;;;5065300;27;88538;-55
2022/12/11 02:09:48;;;;;;;1.57;1.40;;;;;;;;;;5061277;27;89181;-55
2022/12/11 02:12:18;;;;;;;1.93;1.47;;;;;;;;;;5062060;27;88393;-55
2022/12/11 02:14:48;;;;;;;1.50;1.30;;;;;;;;;;5062116;27;86962;-55
2022/12/11 02:17:17;;;;;;;1.73;1.33;;;;;;;;;;5061498;27;89254;-54
2022/12/11 02:19:49;;;;;;;1.57;1.13;;;;;;;;;;5061541;27;87933;-55
2022/12/11 02:22:22;;;;;;;2.37;1.80;;;;;;;;;;5043009;27;87057;-54
2022/12/11 02:24:53;;;;;;;1.90;1.70;;;;;;;;;;5071191;27;87022;-55
2022/12/11 02:27:24;;;;;;;1.90;1.30;;;;;;;;;;5081784;27;86950;-54
2022/12/11 02:29:54;;;;;;;3.13;1.53;;;;;;;;;;5082643;27;88832;-55
2022/12/11 02:32:23;;;;;;;1.50;1.40;;;;;;;;;;5082641;27;87053;-55
2022/12/11 02:34:53;;;;;;;3.27;2.33;;;;;;;;;;5066310;27;87082;-55
2022/12/11 02:37:22;;;;;;;4.80;2.90;;;;;;;;;;5071397;27;89973;-52
2022/12/11 02:39:51;;;;;;;5.70;4.13;;;;;;;;;;5081727;27;89914;-55
2022/12/11 02:42:19;;;;;;;7.03;4.50;;;;;;;;;;5067994;27;86983;-55
2022/12/11 02:44:48;;;;;;;8.30;5.27;;;;;;;;;;5068542;27;87054;-55
2022/12/11 02:47:18;;;;;;;8.97;5.77;;;;;;;;;;5080566;27;89155;-55
2022/12/11 02:49:47;;;;;;;8.47;5.97;;;;;;;;;;5076906;27;88976;-53
2022/12/11 02:52:15;;;;;;;9.07;5.13;;;;;;;;;;5061516;27;86956;-54
2022/12/11 02:54:44;;;;;;;6.83;4.87;;;;;;;;;;5061262;27;86271;-55
2022/12/11 02:57:13;;;;;;;8.37;5.27;;;;;;;;;;5060682;27;89017;-55
2022/12/11 02:59:42;;;;;;;8.47;4.67;;;;;;;;;;5061205;27;88867;-55
2022/12/11 03:02:10;;;;;;;6.90;4.47;;;;;;;;;;5061222;27;87874;-55
2022/12/11 03:04:40;;;;;;;8.30;4.57;;;;;;;;;;5061498;27;87540;-55
2022/12/11 03:07:11;;;;;;;5.60;4.57;;;;;;;;;;5060767;27;89120;-52
2022/12/11 03:09:39;;;;;;;4.37;3.50;;;;;;;;;;5061604;27;88736;-53
2022/12/11 03:12:08;;;;;;;6.20;4.27;;;;;;;;;;5061136;27;87124;-53
2022/12/11 03:14:36;;;;;;;5.87;4.20;;;;;;;;;;5061159;27;87050;-52
2022/12/11 03:17:05;;;;;;;5.57;3.53;;;;;;;;;;5061273;27;87763;-53
2022/12/11 03:19:35;;;;;;;5.37;4.17;;;;;;;;;;5061331;27;89208;-52
2022/12/11 03:22:07;;;;;;;5.37;3.60;;;;;;;;;;5061171;27;87444;-53
2022/12/11 03:24:37;;;;;;;5.50;3.70;;;;;;;;;;5066281;27;87047;-53
2022/12/11 03:27:07;;;;;;;3.70;2.80;;;;;;;;;;5059728;27;89007;-53
2022/12/11 03:29:38;;;;;;;4.33;3.60;;;;;;;;;;5060398;27;88687;-53
2022/12/11 03:32:07;;;;;;;5.33;3.30;;;;;;;;;;5060981;27;86932;-53
2022/12/11 03:34:38;;;;;;;2.53;2.33;;;;;;;;;;5060237;27;87203;-53
2022/12/11 03:37:07;;;;;;;4.33;3.00;;;;;;;;;;5060687;27;87992;-54
2022/12/11 03:39:37;;;;;;;6.17;3.50;;;;;;;;;;5064135;27;88209;-53
2022/12/11 03:42:07;;;;;;;5.07;3.20;;;;;;;;;;5068719;27;87063;-54
2022/12/11 03:44:35;;;;;;;4.20;3.37;;;;;;;;;;5066187;27;86143;-54
2022/12/11 03:47:05;;;;;;;3.60;2.57;;;;;;;;;;5064406;27;88817;-53
2022/12/11 03:49:34;;;;;;;4.20;2.77;;;;;;;;;;5064300;27;88808;-54
2022/12/11 03:52:03;;;;;;;2.33;2.13;;;;;;;;;;5080352;27;87898;-53
2022/12/11 03:54:32;;;;;;;5.07;2.87;;;;;;;;;;5067093;27;87060;-54
2022/12/11 03:57:01;;;;;;;4.30;2.90;;;;;;;;;;5084489;27;89047;-54
2022/12/11 03:59:29;;;;;;;4.27;2.33;;;;;;;;;;5083834;27;86940;-53
2022/12/11 04:01:57;;;;;;;4.83;3.60;;;;;;;;;;5067713;27;88076;-53
2022/12/11 04:04:26;;;;;;;3.63;3.03;;;;;;;;;;5047970;27;87100;-53
2022/12/11 04:06:54;;;;;;;3.50;2.40;;;;;;;;;;5066946;27;89047;-54
2022/12/11 04:09:22;;;;;;;3.27;2.37;;;;;;;;;;5083162;27;87426;-54
2022/12/11 04:11:52;;;;;;;5.53;2.73;;;;;;;;;;5046187;27;86901;-53
2022/12/11 04:17:06;;;;;;;2.17;1.93;;;;;;;;;;5043446;28;90065;-54
2022/12/11 04:25:06;;;;;;;2.60;1.97;;;;;;;;;;5071494;27;86996;-53
2022/12/11 04:27:49;;;;;;;2.27;1.80;;;;;;;;;;5081781;27;89086;-54
2022/12/11 04:30:17;;;;;;;3.10;2.00;;;;;;;;;;5066035;27;88617;-53
2022/12/11 04:32:45;;;;;;;3.47;2.53;;;;;;;;;;5063552;27;86928;-54
2022/12/11 04:35:14;;;;;;;4.90;2.70;;;;;;;;;;5043753;27;86194;-53
2022/12/11 04:37:42;;;;;;;2.03;1.70;;;;;;;;;;5064103;27;88058;-53
2022/12/11 04:40:11;;;;;;;3.03;1.73;;;;;;;;;;5062412;27;89209;-53
2022/12/11 04:42:41;;;;;;;2.80;2.30;;;;;;;;;;5075045;27;87933;-53
2022/12/11 04:45:10;;;;;;;3.63;2.10;;;;;;;;;;5083630;27;86894;-54
2022/12/11 04:47:39;;;;;;;3.63;2.27;;;;;;;;;;5083032;27;88945;-54
2022/12/11 04:50:08;;;;;;;2.77;2.10;;;;;;;;;;5046011;27;88154;-54
2022/12/11 04:52:36;;;;;;;2.37;1.70;;;;;;;;;;5064256;27;86845;-53
2022/12/11 04:55:05;;;;;;;2.67;2.40;;;;;;;;;;5063350;27;87760;-53
2022/12/11 04:57:33;;;;;;;2.47;1.70;;;;;;;;;;5074685;27;89225;-54
2022/12/11 05:00:03;;;;;;;2.37;1.90;;;;;;;;;;5083542;27;88936;-54
2022/12/11 05:02:34;;;;;;;3.70;2.10;;;;;;;;;;5064299;27;87051;-54
2022/12/11 05:05:03;;;;;;;2.93;1.90;;;;;;;;;;5070378;27;86957;-54
2022/12/11 05:07:31;;;;;;;2.30;1.97;;;;;;;;;;5082537;27;90062;-54
2022/12/11 05:09:59;;;;;;;2.53;2.20;;;;;;;;;;5069316;27;89455;-53
2022/12/11 05:12:28;;;;;;;2.23;1.93;;;;;;;;;;5071126;27;86998;-54
2022/12/11 05:14:56;;;;;;;2.03;1.73;;;;;;;;;;5083090;27;86990;-53
2022/12/11 05:17:26;;;;;;;4.43;2.10;;;;;;;;;;5083203;27;89214;-53
2022/12/11 05:19:54;;;;;;;1.87;1.60;;;;;;;;;;5067961;27;88567;-54
2022/12/11 05:22:23;;;;;;;2.03;1.83;;;;;;;;;;5064281;27;87133;-54
2022/12/11 05:24:51;;;;;;;2.27;1.80;;;;;;;;;;5063365;27;86338;-53
2022/12/11 05:27:19;;;;;;;2.13;1.60;;;;;;;;;;5075555;27;88955;-53
2022/12/11 05:29:48;;;;;;;1.93;1.73;;;;;;;;;;5082270;27;88747;-54
2022/12/11 05:32:16;;;;;;;3.87;1.70;;;;;;;;;;5082252;27;87927;-54
2022/12/11 05:34:45;;;;;;;3.87;2.03;;;;;;;;;;5082885;27;86969;-54
2022/12/11 05:37:14;;;;;;;1.10;1.00;;;;;;;;;;5079780;27;87962;-54
2022/12/11 05:39:42;;;;;;;3.30;2.07;;;;;;;;;;5081029;27;88536;-54
2022/12/11 05:42:10;;;;;;;2.83;1.90;;;;;;;;;;5083290;27;87036;-55
2022/12/11 05:44:39;;;;;;;2.83;1.30;;;;;;;;;;5067208;27;86864;-56
2022/12/11 05:47:07;;;;;;;2.27;1.73;;;;;;;;;;5061589;27;89281;-55
2022/12/11 05:49:36;;;;;;;2.37;1.83;;;;;;;;;;5062231;27;88678;-54
2022/12/11 05:52:05;;;;;;;1.57;1.33;;;;;;;;;;5077149;27;87722;-55
2022/12/11 05:54:34;;;;;;;2.30;1.60;;;;;;;;;;5078542;27;87022;-56
2022/12/11 05:57:02;;;;;;;2.83;1.47;;;;;;;;;;5061786;27;87881;-56
2022/12/11 05:59:30;;;;;;;1.87;1.43;;;;;;;;;;5062154;27;89836;-53
2022/12/11 06:01:59;;;;;;;1.20;1.10;;;;;;;;;;5075431;27;87108;-54
2022/12/11 06:04:27;;;;;;;1.77;1.67;;;;;;;;;;5082568;27;87080;-54
2022/12/11 06:06:55;;;;;;;1.87;1.20;;;;;;;;;;5082924;27;89185;-55
2022/12/11 06:09:25;;;;;;;2.73;1.47;;;;;;;;;;5082425;27;88942;-54
2022/12/11 06:11:53;;;;;;;1.23;1.17;;;;;;;;;;5063410;27;87027;-53
2022/12/11 06:14:21;;;;;;;1.17;1.07;;;;;;;;;;5062354;27;86356;-54
2022/12/11 06:16:50;;;;;;;1.90;1.40;;;;;;;;;;5062072;27;88696;-54
2022/12/11 06:19:18;;;;;;;1.57;1.47;;;;;;;;;;5071195;27;88854;-54
2022/12/11 06:21:47;;;;;;;1.33;1.20;;;;;;;;;;5080469;27;88030;-54
2022/12/11 06:24:16;;;;;;;1.97;1.07;;;;;;;;;;5082273;27;86954;-55
2022/12/11 06:26:45;;;;;;;2.70;1.57;;;;;;;;;;5078032;27;88070;-56
2022/12/11 06:29:14;;;;;;;1.83;1.40;;;;;;;;;;5081574;27;89121;-55
2022/12/11 06:31:42;;;;;;;1.13;1.07;;;;;;;;;;5083232;27;86994;-55
2022/12/11 06:34:11;;;;;;;2.70;1.20;;;;;;;;;;5082225;27;86886;-55
2022/12/11 06:36:40;;;;;;;1.60;1.30;;;;;;;;;;5079423;27;89236;-55
2022/12/11 06:39:08;;;;;;;1.77;1.00;;;;;;;;;;5082264;27;88936;-54
2022/12/11 06:41:36;;;;;;;1.13;1.03;;;;;;;;;;5082624;27;86928;-55
2022/12/11 06:44:06;;;;;;;2.10;1.17;;;;;;;;;;5080004;27;87571;-55
2022/12/11 06:46:34;;;;;;;0.87;0.80;;;;;;;;;;5061012;27;88866;-55
2022/12/11 06:49:02;;;;;;;1.83;1.20;;;;;;;;;;5069862;27;88787;-56
2022/12/11 06:51:31;;;;;;;2.57;1.40;;;;;;;;;;5080782;27;87039;-55
2022/12/11 06:54:00;;;;;;;1.10;1.10;;;;;;;;;;5079756;27;87093;-56
2022/12/11 06:56:28;;;;;;;1.57;1.23;;;;;;;;;;5064693;27;89139;-56
2022/12/11 06:58:56;;;;;;;1.27;1.17;;;;;;;;;;5078208;27;88823;-55
2022/12/11 07:01:30;;;;;;;1.10;0.93;;;;;;;;;;5045338;27;87024;-55
2022/12/11 07:03:58;;;;;;;2.00;1.30;;;;;;;;;;5061974;27;86237;-56
2022/12/11 07:06:27;;;;;;;1.57;1.07;;;;;;;;;;5071783;27;89102;-55
2022/12/11 07:08:55;;;;;;;1.70;1.33;;;;;;;;;;5079690;27;88884;-55
2022/12/11 07:11:24;;;;;;;1.50;1.40;;;;;;;;;;5076319;27;87919;-55
2022/12/11 07:13:52;;;;;;;2.17;1.30;;;;;;;;;;5067019;27;87066;-55
2022/12/11 07:16:20;;;;;;;1.23;0.90;;;;;;;;;;5084669;27;87872;-55
2022/12/11 07:18:50;;;;;;;1.87;1.00;;;;;;;;;;5080557;27;88869;-55
2022/12/11 07:21:19;;;;;;;1.20;0.90;;;;;;;;;;5073396;27;86947;-56
2022/12/11 07:23:47;;;;;;;1.90;1.17;;;;;;;;;;5084534;27;86976;-56
2022/12/11 07:26:16;;;;;;;3.20;1.30;;;;;;;;;;5070776;27;88038;-55
2022/12/11 07:28:44;;;;;;;3.27;1.20;;;;;;;;;;5064778;27;87843;-54
2022/12/11 07:31:13;;;;;;;1.13;1.00;;;;;;;;;;5064338;27;86923;-55
2022/12/11 07:33:42;;;;;;;2.37;1.30;;;;;;;;;;5080016;27;86893;-55
2022/12/11 07:36:12;;;;;;;1.27;0.90;;;;;;;;;;5082878;27;90098;-55
2022/12/11 07:38:40;;;;;;;1.33;0.87;;;;;;;;;;5069552;27;89606;-55
2022/12/11 07:41:09;;;;;;;1.13;0.83;;;;;;;;;;5064023;27;87003;-55
2022/12/11 07:43:37;;;;;;;1.03;0.93;;;;;;;;;;5061144;27;86992;-55
2022/12/11 07:46:06;;;;;;;2.47;1.60;;;;;;;;;;5061251;27;87001;-56
2022/12/11 07:48:35;;;;;;;1.47;1.00;;;;;;;;;;5062590;27;87522;-56
2022/12/11 07:51:13;;;;;;;1.50;1.30;;;;;;;;;;5062962;27;86884;-55
2022/12/11 07:53:42;;;;;;;1.57;1.17;;;;;;;;;;5049271;27;86296;-55
2022/12/11 07:56:10;;;;;;;2.73;2.00;;;;;;;;;;5044342;27;89270;-55
2022/12/11 07:58:39;;;;;;;1.53;1.30;;;;;;;;;;5045018;27;88778;-55
2022/12/11 08:01:11;;;;;;;2.03;1.47;;;;;;;;;;5042738;27;88369;-55
2022/12/11 08:03:39;;;;;;;4.27;2.00;;;;;;;;;;5043662;27;87000;-55
2022/12/11 08:06:08;;;;;;;1.50;1.00;;;;;;;;;;5051467;27;88044;-55
2022/12/11 08:08:38;;;;;;;2.93;1.53;;;;;;;;;;5059581;27;88107;-55
2022/12/11 08:11:06;;;;;;;1.40;1.20;;;;;;;;;;5064118;27;86851;-55
2022/12/11 08:13:35;;;;;;;1.47;1.00;;;;;;;;;;5063828;27;87329;-55
2022/12/11 08:16:03;;;;;;;1.47;1.37;;;;;;;;;;5056381;27;87887;-55
2022/12/11 08:18:32;;;;;;;3.17;1.87;;;;;;;;;;5052757;27;86872;-54
2022/12/11 08:21:00;;;;;;;4.53;1.87;;;;;;;;;;5060939;27;87150;-55
2022/12/11 08:23:28;;;;;;;3.57;1.90;;;;;;;;;;5056819;27;87076;-54
2022/12/11 08:25:58;;;;;;;2.93;1.53;;;;;;;;;;5042190;27;88985;-55
2022/12/11 08:28:26;;;;;;;3.03;1.60;;;;;;;;;;5042675;27;89848;-56
2022/12/11 08:30:55;;;;;;;2.33;1.53;;;;;;;;;;5043451;27;86885;-55
2022/12/11 08:33:23;;;;;;;3.13;1.57;;;;;;;;;;5042192;27;87421;-55
2022/12/11 08:35:52;;;;;;;2.20;1.87;;;;;;;;;;5042411;27;89253;-54
2022/12/11 08:38:20;;;;;;;2.57;1.30;;;;;;;;;;5041503;27;87737;-55
2022/12/11 08:40:52;;;;;;;2.27;1.47;;;;;;;;;;5062270;27;87021;-55
2022/12/11 08:43:22;;;;;;;2.00;1.33;;;;;;;;;;5063798;27;86276;-55
2022/12/11 08:45:50;;;;;;;2.70;1.87;;;;;;;;;;5054920;27;88204;-55
2022/12/11 08:48:19;;;;;;;2.10;1.90;;;;;;;;;;5042069;27;86882;-55
2022/12/11 08:50:47;;;;;;;2.23;1.73;;;;;;;;;;5054285;27;87995;-55
2022/12/11 08:53:16;;;;;;;3.03;1.90;;;;;;;;;;5044201;27;87089;-55
2022/12/11 08:55:44;;;;;;;3.17;1.77;;;;;;;;;;5055006;27;89111;-55
2022/12/11 08:58:13;;;;;;;2.23;1.53;;;;;;;;;;5063391;27;88909;-55
2022/12/11 09:00:42;;;;;;;1.97;1.77;;;;;;;;;;5063181;27;87057;-55
2022/12/11 09:03:11;;;;;;;1.37;1.17;;;;;;;;;;5054916;27;87039;-55
2022/12/11 09:05:40;;;;;;;2.83;2.00;;;;;;;;;;5044743;27;89067;-56
2022/12/11 09:08:08;;;;;;;2.27;1.80;;;;;;;;;;5070556;27;87778;-55
2022/12/11 09:10:36;;;;;;;2.47;1.43;;;;;;;;;;5076296;27;87106;-55
2022/12/11 09:13:05;;;;;;;2.97;1.70;;;;;;;;;;5061833;27;87473;-55
2022/12/11 09:15:34;;;;;;;1.37;1.20;;;;;;;;;;5062364;27;89970;-56
2022/12/11 09:18:04;;;;;;;1.77;1.20;;;;;;;;;;5062173;27;89681;-55
2022/12/11 09:20:33;;;;;;;3.13;1.53;;;;;;;;;;5062670;27;87058;-55
2022/12/11 09:23:02;;;;;;;2.80;1.47;;;;;;;;;;5063034;27;86811;-55
2022/12/11 09:25:30;;;;;;;1.40;1.30;;;;;;;;;;5062659;27;88000;-55
2022/12/11 09:27:58;;;;;;;1.23;1.13;;;;;;;;;;5062851;27;88675;-55
2022/12/11 09:30:27;;;;;;;1.20;1.10;;;;;;;;;;5062698;27;87031;-56
2022/12/11 09:32:55;;;;;;;1.47;1.00;;;;;;;;;;5062694;27;86334;-55
2022/12/11 09:35:25;;;;;;;3.13;1.67;;;;;;;;;;5061459;27;89217;-56
2022/12/11 09:37:53;;;;;;;0.90;0.90;;;;;;;;;;5061281;27;89008;-56
2022/12/11 09:40:22;;;;;;;3.57;1.50;;;;;;;;;;5062061;27;88071;-55
2022/12/11 09:42:51;;;;;;;1.63;1.30;;;;;;;;;;5062290;27;86947;-55
2022/12/11 09:45:20;;;;;;;1.83;1.27;;;;;;;;;;5070397;27;89146;-56
2022/12/11 09:47:49;;;;;;;1.67;1.40;;;;;;;;;;5071313;27;88856;-56
2022/12/11 09:50:18;;;;;;;2.30;1.37;;;;;;;;;;5071481;27;86956;-55
2022/12/11 09:52:51;;;;;;;2.00;1.30;;;;;;;;;;5070760;27;87004;-54
2022/12/11 09:55:20;;;;;;;1.83;1.60;;;;;;;;;;5069189;27;89064;-54
2022/12/11 09:57:49;;;;;;;3.10;1.70;;;;;;;;;;5064120;27;87715;-56
2022/12/11 10:00:19;;;;;;;2.70;1.80;;;;;;;;;;5069336;27;87379;-55
2022/12/11 10:03:07;;;;;;;1.63;1.50;;;;;;;;;;5068804;27;87664;-55
2022/12/11 10:05:36;;;;;;;2.33;1.53;;;;;;;;;;5072221;27;90229;-56
2022/12/11 10:08:10;;;;;;;3.47;1.60;;;;;;;;;;5066907;27;89747;-56
2022/12/11 10:10:39;;;;;;;1.63;1.20;;;;;;;;;;5072065;27;87144;-56
2022/12/11 10:13:10;;;;;;;2.10;1.60;;;;;;;;;;5082869;27;87160;-55
2022/12/11 10:15:40;;;;;;;2.17;1.37;;;;;;;;;;5081612;27;87117;-55
2022/12/11 10:18:10;;;;;;;2.47;1.77;;;;;;;;;;5081988;27;88768;-55
2022/12/11 10:20:40;;;;;;;2.50;1.50;;;;;;;;;;5080661;27;87270;-55
2022/12/11 10:23:10;;;;;;;3.17;1.73;;;;;;;;;;5078701;27;86342;-55
2022/12/11 10:25:41;;;;;;;2.70;1.40;;;;;;;;;;5082089;27;87883;-55
2022/12/11 10:28:12;;;;;;;1.30;1.07;;;;;;;;;;5081970;27;87718;-53
2022/12/11 10:30:40;;;;;;;1.63;1.10;;;;;;;;;;5081465;27;87962;-53
2022/12/11 10:33:12;;;;;;;2.27;1.80;;;;;;;;;;5082069;27;87026;-54
2022/12/11 10:35:42;;;;;;;2.60;1.80;;;;;;;;;;5081257;27;89490;-53
2022/12/11 10:38:14;;;;;;;1.40;1.30;;;;;;;;;;5081320;27;89106;-53
2022/12/11 10:40:43;;;;;;;1.47;0.97;;;;;;;;;;5081762;27;87171;-53
2022/12/11 10:43:11;;;;;;;1.53;1.27;;;;;;;;;;5081306;27;87012;-53
2022/12/11 10:45:40;;;;;;;2.87;1.60;;;;;;;;;;5081511;27;86900;-54
2022/12/11 10:48:10;;;;;;;1.83;1.40;;;;;;;;;;5083695;27;87628;-53
2022/12/11 10:50:38;;;;;;;2.57;1.50;;;;;;;;;;5085919;27;87339;-54
2022/12/11 10:53:07;;;;;;;2.33;2.07;;;;;;;;;;5085135;27;86991;-53
2022/12/11 10:55:39;;;;;;;2.27;1.10;;;;;;;;;;5085134;27;89927;-54
2022/12/11 10:58:07;;;;;;;1.33;1.10;;;;;;;;;;5084559;27;89753;-56
2022/12/11 11:00:36;;;;;;;2.43;1.57;;;;;;;;;;5084515;27;87050;-55
2022/12/11 11:03:04;;;;;;;2.63;1.37;;;;;;;;;;5085166;27;87271;-53
2022/12/11 11:05:34;;;;;;;3.10;1.63;;;;;;;;;;5084887;27;88053;-54
2022/12/11 11:08:13;;;;;;;2.67;1.60;;;;;;;;;;5084337;27;87549;-52
2022/12/11 11:10:52;;;;;;;2.57;1.70;;;;;;;;;;5085053;27;87026;-53
2022/12/11 11:13:21;;;;;;;2.47;1.80;;;;;;;;;;5086178;27;86290;-53
2022/12/11 11:15:49;;;;;;;2.57;1.70;;;;;;;;;;5085062;27;89105;-53
2022/12/11 11:18:21;;;;;;;2.37;1.77;;;;;;;;;;5085331;27;87968;-53
2022/12/11 11:20:50;;;;;;;6.03;1.73;;;;;;;;;;5084516;27;87939;-53
2022/12/11 11:23:18;;;;;;;3.03;1.83;;;;;;;;;;5085242;27;86876;-54
2022/12/11 11:25:49;;;;;;;2.73;1.90;;;;;;;;;;5083629;27;88978;-53
2022/12/11 11:28:20;;;;;;;2.47;1.83;;;;;;;;;;5084514;27;88927;-54
2022/12/11 11:30:56;;;;;;;4.07;1.83;;;;;;;;;;5083735;27;87022;-54
2022/12/11 11:33:24;;;;;;;3.47;2.10;;;;;;;;;;5085123;27;86969;-53
2022/12/11 11:35:53;;;;;;;2.03;1.70;;;;;;;;;;5084569;27;88947;-53
2022/12/11 11:38:22;;;;;;;1.97;1.43;;;;;;;;;;5084872;27;87380;-53
2022/12/11 11:40:51;;;;;;;4.20;2.00;;;;;;;;;;5084018;27;87186;-54
2022/12/11 11:43:29;;;;;;;5.70;2.70;;;;;;;;;;5084786;27;86931;-53
2022/12/11 11:45:58;;;;;;;2.60;1.77;;;;;;;;;;5083318;27;89304;-53
2022/12/11 11:48:29;;;;;;;4.90;2.90;;;;;;;;;;5084155;27;89803;-53
2022/12/11 11:50:58;;;;;;;4.13;2.30;;;;;;;;;;5083777;27;87046;-54
2022/12/11 11:53:28;;;;;;;7.10;2.57;;;;;;;;;;5085124;27;87570;-54
2022/12/11 11:55:59;;;;;;;3.07;1.97;;;;;;;;;;5084475;27;89120;-53
2022/12/11 11:58:31;;;;;;;4.93;2.40;;;;;;;;;;5082510;27;89015;-56
2022/12/11 12:00:59;;;;;;;5.47;2.63;;;;;;;;;;5074380;27;86813;-53
2022/12/11 12:03:28;;;;;;;6.40;2.37;;;;;;;;;;5064378;27;86208;-54
2022/12/11 12:05:58;;;;;;;3.37;2.50;;;;;;;;;;5063364;27;89257;-54
2022/12/11 12:08:30;;;;;;;3.63;1.93;;;;;;;;;;5063835;27;88983;-53
2022/12/11 12:11:00;;;;;;;4.40;2.53;;;;;;;;;;5062817;27;87895;-53
2022/12/11 12:13:31;;;;;;;3.00;2.27;;;;;;;;;;5063602;27;87546;-54
2022/12/11 12:16:21;;;;;;;3.37;2.30;;;;;;;;;;5062385;27;87620;-55
2022/12/11 12:19:12;;;;;;;3.63;2.87;;;;;;;;;;5062629;27;87421;-53
2022/12/11 12:21:41;;;;;;;4.43;2.57;;;;;;;;;;5061610;27;87148;-54
2022/12/11 12:24:12;;;;;;;4.80;2.27;;;;;;;;;;5060116;27;87637;-55
2022/12/11 12:26:42;;;;;;;5.47;3.23;;;;;;;;;;5060240;27;89079;-55
2022/12/11 12:29:15;;;;;;;5.00;2.63;;;;;;;;;;5061645;27;88920;-55
2022/12/11 12:31:47;;;;;;;5.27;2.60;;;;;;;;;;5062534;27;87066;-56
2022/12/11 12:34:17;;;;;;;5.53;2.90;;;;;;;;;;5061589;27;87128;-54
2022/12/11 12:36:47;;;;;;;6.33;2.87;;;;;;;;;;5059169;27;89623;-56
2022/12/11 12:39:17;;;;;;;5.30;2.87;;;;;;;;;;5060007;27;89508;-54
2022/12/11 12:41:47;;;;;;;3.97;2.50;;;;;;;;;;5059348;27;87441;-54
2022/12/11 12:44:17;;;;;;;3.23;2.33;;;;;;;;;;5060884;27;87027;-53
2022/12/11 12:46:50;;;;;;;3.90;2.50;;;;;;;;;;5059787;27;88132;-54
2022/12/11 12:49:21;;;;;;;5.27;2.37;;;;;;;;;;5059985;27;88725;-54
2022/12/11 12:51:49;;;;;;;3.80;2.37;;;;;;;;;;5058329;27;87003;-53
2022/12/11 12:54:17;;;;;;;6.23;2.70;;;;;;;;;;5042692;27;86180;-53
2022/12/11 12:56:46;;;;;;;6.57;2.87;;;;;;;;;;5055619;27;89006;-55
2022/12/11 12:59:25;;;;;;;3.93;2.20;;;;;;;;;;5077276;27;86891;-53
2022/12/11 13:01:55;;;;;;;4.13;2.13;;;;;;;;;;5055898;27;87829;-56
2022/12/11 13:04:28;;;;;;;2.87;2.33;;;;;;;;;;5061035;27;87121;-53
2022/12/11 13:07:19;;;;;;;3.97;1.93;;;;;;;;;;5062182;27;87526;-54
2022/12/11 13:09:56;;;;;;;3.33;2.10;;;;;;;;;;5061356;27;87655;-54
2022/12/11 13:12:31;;;;;;;4.97;2.13;;;;;;;;;;5062053;27;87017;-54
2022/12/11 13:15:01;;;;;;;4.93;2.07;;;;;;;;;;5061422;27;87056;-54
2022/12/11 13:17:36;;;;;;;4.67;2.37;;;;;;;;;;5062844;27;88009;-54
2022/12/11 13:20:12;;;;;;;2.93;1.67;;;;;;;;;;5054484;27;87777;-54
2022/12/11 13:22:52;;;;;;;4.70;2.17;;;;;;;;;;5042013;28;87171;-54
2022/12/11 13:25:22;;;;;;;2.90;1.80;;;;;;;;;;5060045;27;87004;-54
2022/12/11 13:27:50;;;;;;;2.80;1.67;;;;;;;;;;5079850;27;89012;-54
2022/12/11 13:30:24;;;;;;;2.63;1.73;;;;;;;;;;5062528;27;90145;-54
2022/12/11 13:32:55;;;;;;;3.40;1.73;;;;;;;;;;5062935;27;87032;-54
2022/12/11 13:35:24;;;;;;;2.83;1.60;;;;;;;;;;5062407;27;86921;-54
2022/12/11 13:37:52;;;;;;;4.20;1.60;;;;;;;;;;5062305;27;88924;-53
2022/12/11 13:40:21;;;;;;;2.10;1.50;;;;;;;;;;5062186;27;88919;-54
2022/12/11 13:42:50;;;;;;;2.20;1.73;;;;;;;;;;5069771;27;87093;-54
2022/12/11 13:45:19;;;;;;;6.13;2.50;;;;;;;;;;5066971;27;86385;-54
2022/12/11 13:47:49;;;;;;;7.03;4.77;;;;;;;;;;5062127;27;88241;-54
2022/12/11 13:50:19;;;;;;;9.20;5.70;;;;;;;;;;5061384;27;88938;-53
2022/12/11 13:52:53;;;;;;;9.90;6.23;;;;;;;;;;5061715;27;88334;-54
2022/12/11 13:55:23;;;;;;;12.67;7.57;;;;;;;;;;5063373;27;87121;-54
2022/12/11 13:57:52;;;;;;;13.40;8.80;;;;;;;;;;5061719;27;88090;-54
2022/12/11 14:00:21;;;;;;;16.97;8.80;;;;;;;;;;5061544;27;87049;-54
2022/12/11 14:02:51;;;;;;;13.60;9.20;;;;;;;;;;5074318;27;86988;-54
2022/12/11 14:05:19;;;;;;;18.00;10.83;;;;;;;;;;5062311;27;87053;-53
2022/12/11 14:07:48;;;;;;;17.77;11.03;;;;;;;;;;5060610;27;87081;-53
2022/12/11 14:10:17;;;;;;;14.93;10.67;;;;;;;;;;5060945;27;86913;-54
2022/12/11 14:12:46;;;;;;;16.13;12.13;;;;;;;;;;5060913;27;86979;-54
2022/12/11 14:15:14;;;;;;;23.33;12.80;;;;;;;;;;5079835;27;87162;-53
2022/12/11 14:17:43;;;;;;;16.10;11.27;;;;;;;;;;5063914;27;87922;-53
2022/12/11 14:20:20;;;;;;;22.93;14.30;;;;;;;;;;5060615;27;89900;-54
2022/12/11 14:22:49;;;;;;;20.37;12.80;;;;;;;;;;5060543;27;86912;-53
2022/12/11 14:25:19;;;;;;;20.80;12.90;;;;;;;;;;5068231;27;87166;-54
2022/12/11 14:27:48;;;;;;;17.33;12.17;;;;;;;;;;5065902;27;88995;-54
2022/12/11 14:30:21;;;;;;;19.57;12.93;;;;;;;;;;5060517;27;88931;-54
2022/12/11 14:32:49;;;;;;;19.20;13.37;;;;;;;;;;5074073;27;87177;-53
2022/12/11 14:35:22;;;;;;;19.77;12.13;;;;;;;;;;5082001;27;87406;-54
2022/12/11 14:37:50;;;;;;;16.13;11.27;;;;;;;;;;5076853;27;89319;-53
2022/12/11 14:40:19;;;;;;;20.57;12.33;;;;;;;;;;5060120;27;88595;-54
2022/12/11 14:42:47;;;;;;;16.20;10.77;;;;;;;;;;5059326;27;87981;-54
2022/12/11 14:45:18;;;;;;;15.83;10.67;;;;;;;;;;5059377;27;87079;-54
2022/12/11 14:47:47;;;;;;;21.60;10.87;;;;;;;;;;5058461;27;89224;-54
2022/12/11 14:50:18;;;;;;;15.00;9.33;;;;;;;;;;5058978;27;88847;-54
2022/12/11 14:52:48;;;;;;;13.07;9.33;;;;;;;;;;5050675;27;87102;-54
2022/12/11 14:55:18;;;;;;;12.47;9.67;;;;;;;;;;5052050;27;87659;-54
2022/12/11 14:57:47;;;;;;;11.90;8.67;;;;;;;;;;5038835;28;89142;-54
2022/12/11 15:00:22;;;;;;;14.20;9.00;;;;;;;;;;5057902;27;87938;-54
2022/12/11 15:02:58;;;;;;;13.30;9.20;;;;;;;;;;5060397;27;87132;-54
2022/12/11 15:05:26;;;;;;;13.47;9.87;;;;;;;;;;5060859;27;87064;-53